sensor_id;sensor_type;location;lat;lon;timestamp;temperature;humidity
13115;DHT22;6623;52.120;8.660;2023-09-19T00:01:28;25.50;55.40
13115;DHT22;6623;52.120;8.660;2023-09-19T00:03:56;25.50;55.40
13115;DHT22;6623;52.120;8.660;2023-09-19T00:06:23;25.50;55.40
13115;DHT22;6623;52.120;8.660;2023-09-19T00:08:51;25.50;55.40
13115;DHT22;6623;52.120;8.660;2023-09-19T00:11:17;25.50;55.30
13115;DHT22;6623;52.120;8.660;2023-09-19T00:13:42;25.50;55.40
13115;DHT22;6623;52.120;8.660;2023-09-19T00:16:10;25.50;55.40
13115;DHT22;6623;52.120;8.660;2023-09-19T00:18:37;25.50;55.30
13115;DHT22;6623;52.120;8.660;2023-09-19T00:21:03;25.50;55.40
13115;DHT22;6623;52.120;8.660;2023-09-19T00:23:30;25.50;55.30
13115;DHT22;6623;52.120;8.660;2023-09-19T00:26:00;25.50;55.30
13115;DHT22;6623;52.120;8.660;2023-09-19T00:28:26;25.50;55.30
13115;DHT22;6623;52.120;8.660;2023-09-19T00:30:52;25.50;55.30
13115;DHT22;6623;52.120;8.660;2023-09-19T00:33:20;25.50;55.30
13115;DHT22;6623;52.120;8.660;2023-09-19T00:35:50;25.50;55.30
13115;DHT22;6623;52.120;8.660;2023-09-19T00:38:16;25.50;55.30
13115;DHT22;6623;52.120;8.660;2023-09-19T00:40:44;25.50;55.30
13115;DHT22;6623;52.120;8.660;2023-09-19T00:43:10;25.50;55.30
13115;DHT22;6623;52.120;8.660;2023-09-19T00:45:37;25.50;55.30
13115;DHT22;6623;52.120;8.660;2023-09-19T00:48:07;25.50;55.30
13115;DHT22;6623;52.120;8.660;2023-09-19T00:50:35;25.50;55.70
13115;DHT22;6623;52.120;8.660;2023-09-19T00:53:01;25.50;55.30
13115;DHT22;6623;52.120;8.660;2023-09-19T00:55:29;25.50;55.30
13115;DHT22;6623;52.120;8.660;2023-09-19T00:57:56;25.50;55.30
13115;DHT22;6623;52.120;8.660;2023-09-19T01:00:22;25.50;55.30
13115;DHT22;6623;52.120;8.660;2023-09-19T01:02:49;25.50;55.30
13115;DHT22;6623;52.120;8.660;2023-09-19T01:05:15;25.50;55.20
13115;DHT22;6623;52.120;8.660;2023-09-19T01:07:41;25.50;55.20
13115;DHT22;6623;52.120;8.660;2023-09-19T01:10:09;25.50;55.20
13115;DHT22;6623;52.120;8.660;2023-09-19T01:13:01;25.50;55.20
13115;DHT22;6623;52.120;8.660;2023-09-19T01:15:42;25.50;55.20
13115;DHT22;6623;52.120;8.660;2023-09-19T01:32:05;25.40;55.10
13115;DHT22;6623;52.120;8.660;2023-09-19T01:34:51;25.40;55.10
13115;DHT22;6623;52.120;8.660;2023-09-19T01:37:19;25.40;55.10
13115;DHT22;6623;52.120;8.660;2023-09-19T01:39:47;25.40;55.10
13115;DHT22;6623;52.120;8.660;2023-09-19T01:42:37;25.50;55.20
13115;DHT22;6623;52.120;8.660;2023-09-19T01:45:26;25.40;55.10
13115;DHT22;6623;52.120;8.660;2023-09-19T01:47:54;25.40;55.10
13115;DHT22;6623;52.120;8.660;2023-09-19T01:53:26;25.40;55.00
13115;DHT22;6623;52.120;8.660;2023-09-19T01:55:57;25.50;55.10
13115;DHT22;6623;52.120;8.660;2023-09-19T01:58:42;25.40;55.00
13115;DHT22;6623;52.120;8.660;2023-09-19T02:01:12;25.40;55.00
13115;DHT22;6623;52.120;8.660;2023-09-19T02:03:41;25.40;55.00
13115;DHT22;6623;52.120;8.660;2023-09-19T02:06:14;25.40;55.00
13115;DHT22;6623;52.120;8.660;2023-09-19T02:08:39;25.40;54.90
13115;DHT22;6623;52.120;8.660;2023-09-19T02:11:05;25.40;54.90
13115;DHT22;6623;52.120;8.660;2023-09-19T02:13:31;25.40;54.90
13115;DHT22;6623;52.120;8.660;2023-09-19T02:15:57;25.40;54.90
13115;DHT22;6623;52.120;8.660;2023-09-19T02:18:22;25.40;54.90
13115;DHT22;6623;52.120;8.660;2023-09-19T02:20:48;25.40;54.90
13115;DHT22;6623;52.120;8.660;2023-09-19T02:23:14;25.40;54.80
13115;DHT22;6623;52.120;8.660;2023-09-19T02:25:41;25.30;54.70
13115;DHT22;6623;52.120;8.660;2023-09-19T02:28:06;25.40;54.80
13115;DHT22;6623;52.120;8.660;2023-09-19T02:30:32;25.30;54.70
13115;DHT22;6623;52.120;8.660;2023-09-19T02:32:58;25.40;54.80
13115;DHT22;6623;52.120;8.660;2023-09-19T02:35:26;25.40;54.70
13115;DHT22;6623;52.120;8.660;2023-09-19T02:37:53;25.40;54.80
13115;DHT22;6623;52.120;8.660;2023-09-19T02:40:19;25.40;54.70
13115;DHT22;6623;52.120;8.660;2023-09-19T02:42:46;25.40;54.70
13115;DHT22;6623;52.120;8.660;2023-09-19T02:45:14;25.40;54.70
13115;DHT22;6623;52.120;8.660;2023-09-19T02:47:43;25.40;54.70
13115;DHT22;6623;52.120;8.660;2023-09-19T02:50:09;25.40;54.70
13115;DHT22;6623;52.120;8.660;2023-09-19T02:52:40;25.40;55.30
13115;DHT22;6623;52.120;8.660;2023-09-19T02:55:09;25.40;54.60
13115;DHT22;6623;52.120;8.660;2023-09-19T02:57:35;25.40;54.60
13115;DHT22;6623;52.120;8.660;2023-09-19T03:00:02;25.40;54.60
13115;DHT22;6623;52.120;8.660;2023-09-19T03:02:33;25.40;54.60
13115;DHT22;6623;52.120;8.660;2023-09-19T03:05:00;25.40;54.50
13115;DHT22;6623;52.120;8.660;2023-09-19T03:07:25;25.40;54.50
13115;DHT22;6623;52.120;8.660;2023-09-19T03:09:51;25.40;54.50
13115;DHT22;6623;52.120;8.660;2023-09-19T03:12:18;25.40;54.50
13115;DHT22;6623;52.120;8.660;2023-09-19T03:14:43;25.40;54.50
13115;DHT22;6623;52.120;8.660;2023-09-19T03:17:09;25.40;54.40
13115;DHT22;6623;52.120;8.660;2023-09-19T03:19:35;25.40;54.40
13115;DHT22;6623;52.120;8.660;2023-09-19T03:22:00;25.40;54.40
13115;DHT22;6623;52.120;8.660;2023-09-19T03:24:27;25.40;54.40
13115;DHT22;6623;52.120;8.660;2023-09-19T03:26:53;25.40;54.40
13115;DHT22;6623;52.120;8.660;2023-09-19T03:29:18;25.40;54.40
13115;DHT22;6623;52.120;8.660;2023-09-19T03:31:44;25.40;54.40
13115;DHT22;6623;52.120;8.660;2023-09-19T03:34:11;25.40;54.30
13115;DHT22;6623;52.120;8.660;2023-09-19T03:36:36;25.40;54.30
13115;DHT22;6623;52.120;8.660;2023-09-19T03:39:02;25.40;54.30
13115;DHT22;6623;52.120;8.660;2023-09-19T03:41:31;25.30;54.20
13115;DHT22;6623;52.120;8.660;2023-09-19T03:43:58;25.40;54.30
13115;DHT22;6623;52.120;8.660;2023-09-19T03:46:24;25.40;54.20
13115;DHT22;6623;52.120;8.660;2023-09-19T03:48:50;25.40;54.20
13115;DHT22;6623;52.120;8.660;2023-09-19T03:51:15;25.40;54.20
13115;DHT22;6623;52.120;8.660;2023-09-19T03:53:41;25.40;54.20
13115;DHT22;6623;52.120;8.660;2023-09-19T03:56:07;25.40;54.20
13115;DHT22;6623;52.120;8.660;2023-09-19T03:58:33;25.40;54.20
13115;DHT22;6623;52.120;8.660;2023-09-19T04:01:03;25.40;54.20
13115;DHT22;6623;52.120;8.660;2023-09-19T04:03:29;25.40;54.10
13115;DHT22;6623;52.120;8.660;2023-09-19T04:06:01;25.40;54.10
13115;DHT22;6623;52.120;8.660;2023-09-19T04:08:27;25.40;54.10
13115;DHT22;6623;52.120;8.660;2023-09-19T04:10:53;25.40;54.10
13115;DHT22;6623;52.120;8.660;2023-09-19T04:13:18;25.40;54.10
13115;DHT22;6623;52.120;8.660;2023-09-19T04:15:44;25.40;54.10
13115;DHT22;6623;52.120;8.660;2023-09-19T04:18:12;25.40;54.00
13115;DHT22;6623;52.120;8.660;2023-09-19T04:20:37;25.40;54.00
13115;DHT22;6623;52.120;8.660;2023-09-19T04:23:03;25.40;54.00
13115;DHT22;6623;52.120;8.660;2023-09-19T04:25:30;25.40;54.00
13115;DHT22;6623;52.120;8.660;2023-09-19T04:27:57;25.40;54.00
13115;DHT22;6623;52.120;8.660;2023-09-19T04:30:23;25.40;54.00
13115;DHT22;6623;52.120;8.660;2023-09-19T04:32:48;25.40;54.00
13115;DHT22;6623;52.120;8.660;2023-09-19T04:35:16;25.40;53.90
13115;DHT22;6623;52.120;8.660;2023-09-19T04:37:42;25.40;53.90
13115;DHT22;6623;52.120;8.660;2023-09-19T04:40:08;25.40;53.90
13115;DHT22;6623;52.120;8.660;2023-09-19T04:42:43;25.30;53.80
13115;DHT22;6623;52.120;8.660;2023-09-19T04:45:09;25.40;53.90
13115;DHT22;6623;52.120;8.660;2023-09-19T04:47:38;25.40;53.90
13115;DHT22;6623;52.120;8.660;2023-09-19T04:50:08;25.30;53.80
13115;DHT22;6623;52.120;8.660;2023-09-19T04:52:41;25.30;53.80
13115;DHT22;6623;52.120;8.660;2023-09-19T04:55:10;25.30;53.70
13115;DHT22;6623;52.120;8.660;2023-09-19T04:57:36;25.30;53.70
13115;DHT22;6623;52.120;8.660;2023-09-19T05:00:02;25.30;53.70
13115;DHT22;6623;52.120;8.660;2023-09-19T05:02:32;25.30;53.70
13115;DHT22;6623;52.120;8.660;2023-09-19T05:05:00;25.30;53.70
13115;DHT22;6623;52.120;8.660;2023-09-19T05:07:25;25.30;53.70
13115;DHT22;6623;52.120;8.660;2023-09-19T05:09:51;25.30;53.70
13115;DHT22;6623;52.120;8.660;2023-09-19T05:12:17;25.30;53.60
13115;DHT22;6623;52.120;8.660;2023-09-19T05:14:45;25.30;53.60
13115;DHT22;6623;52.120;8.660;2023-09-19T05:17:10;25.30;53.60
13115;DHT22;6623;52.120;8.660;2023-09-19T05:19:36;25.30;53.60
13115;DHT22;6623;52.120;8.660;2023-09-19T05:22:02;25.30;53.50
13115;DHT22;6623;52.120;8.660;2023-09-19T05:24:29;25.30;53.50
13115;DHT22;6623;52.120;8.660;2023-09-19T05:26:56;25.30;53.50
13115;DHT22;6623;52.120;8.660;2023-09-19T05:29:22;25.30;53.50
13115;DHT22;6623;52.120;8.660;2023-09-19T05:31:48;25.30;53.50
13115;DHT22;6623;52.120;8.660;2023-09-19T05:34:15;25.30;53.50
13115;DHT22;6623;52.120;8.660;2023-09-19T05:36:40;25.30;53.40
13115;DHT22;6623;52.120;8.660;2023-09-19T05:39:07;25.30;53.50
13115;DHT22;6623;52.120;8.660;2023-09-19T05:41:37;25.30;53.40
13115;DHT22;6623;52.120;8.660;2023-09-19T05:44:05;25.30;53.40
13115;DHT22;6623;52.120;8.660;2023-09-19T05:46:32;25.30;53.40
13115;DHT22;6623;52.120;8.660;2023-09-19T05:48:57;25.30;53.40
13115;DHT22;6623;52.120;8.660;2023-09-19T05:51:23;25.30;53.40
13115;DHT22;6623;52.120;8.660;2023-09-19T05:53:50;25.30;53.30
13115;DHT22;6623;52.120;8.660;2023-09-19T05:56:16;25.30;53.30
13115;DHT22;6623;52.120;8.660;2023-09-19T05:58:44;25.30;53.30
13115;DHT22;6623;52.120;8.660;2023-09-19T06:01:10;25.30;53.30
13115;DHT22;6623;52.120;8.660;2023-09-19T06:03:35;25.30;53.20
13115;DHT22;6623;52.120;8.660;2023-09-19T06:06:04;25.30;53.30
13115;DHT22;6623;52.120;8.660;2023-09-19T06:08:35;25.30;53.20
13115;DHT22;6623;52.120;8.660;2023-09-19T06:11:00;25.30;53.30
13115;DHT22;6623;52.120;8.660;2023-09-19T06:13:28;25.30;53.20
13115;DHT22;6623;52.120;8.660;2023-09-19T06:15:55;25.30;53.20
13115;DHT22;6623;52.120;8.660;2023-09-19T06:18:21;25.30;53.80
13115;DHT22;6623;52.120;8.660;2023-09-19T06:20:51;25.30;53.10
13115;DHT22;6623;52.120;8.660;2023-09-19T06:23:17;25.30;53.10
13115;DHT22;6623;52.120;8.660;2023-09-19T06:25:43;25.30;53.10
13115;DHT22;6623;52.120;8.660;2023-09-19T06:28:09;25.30;53.10
13115;DHT22;6623;52.120;8.660;2023-09-19T06:30:37;25.30;53.00
13115;DHT22;6623;52.120;8.660;2023-09-19T06:33:05;25.30;53.00
13115;DHT22;6623;52.120;8.660;2023-09-19T06:35:33;25.20;52.90
13115;DHT22;6623;52.120;8.660;2023-09-19T06:37:58;25.30;53.00
13115;DHT22;6623;52.120;8.660;2023-09-19T06:40:24;25.30;53.00
13115;DHT22;6623;52.120;8.660;2023-09-19T06:42:53;25.30;53.00
13115;DHT22;6623;52.120;8.660;2023-09-19T06:45:19;25.20;52.90
13115;DHT22;6623;52.120;8.660;2023-09-19T06:47:47;25.20;52.90
13115;DHT22;6623;52.120;8.660;2023-09-19T06:50:20;25.30;53.00
13115;DHT22;6623;52.120;8.660;2023-09-19T06:52:48;25.30;53.00
13115;DHT22;6623;52.120;8.660;2023-09-19T06:55:16;25.30;53.00
13115;DHT22;6623;52.120;8.660;2023-09-19T06:57:42;25.30;53.00
13115;DHT22;6623;52.120;8.660;2023-09-19T07:00:10;25.30;52.90
13115;DHT22;6623;52.120;8.660;2023-09-19T07:03:05;25.30;52.90
13115;DHT22;6623;52.120;8.660;2023-09-19T07:05:31;25.20;52.80
13115;DHT22;6623;52.120;8.660;2023-09-19T07:07:57;25.20;52.80
13115;DHT22;6623;52.120;8.660;2023-09-19T07:10:27;25.20;52.80
13115;DHT22;6623;52.120;8.660;2023-09-19T07:13:03;25.20;52.80
13115;DHT22;6623;52.120;8.660;2023-09-19T07:15:31;25.30;52.80
13115;DHT22;6623;52.120;8.660;2023-09-19T07:17:59;25.20;53.40
13115;DHT22;6623;52.120;8.660;2023-09-19T07:20:26;25.30;52.80
13115;DHT22;6623;52.120;8.660;2023-09-19T07:22:52;25.20;52.70
13115;DHT22;6623;52.120;8.660;2023-09-19T07:25:20;25.20;52.70
13115;DHT22;6623;52.120;8.660;2023-09-19T07:27:46;25.30;52.80
13115;DHT22;6623;52.120;8.660;2023-09-19T07:30:12;25.30;52.80
13115;DHT22;6623;52.120;8.660;2023-09-19T07:32:38;25.20;52.70
13115;DHT22;6623;52.120;8.660;2023-09-19T07:35:04;25.20;52.70
13115;DHT22;6623;52.120;8.660;2023-09-19T07:37:31;25.20;52.70
13115;DHT22;6623;52.120;8.660;2023-09-19T07:39:59;25.20;52.70
13115;DHT22;6623;52.120;8.660;2023-09-19T07:42:25;25.20;52.60
13115;DHT22;6623;52.120;8.660;2023-09-19T07:44:51;25.20;52.60
13115;DHT22;6623;52.120;8.660;2023-09-19T07:47:16;25.20;52.50
13115;DHT22;6623;52.120;8.660;2023-09-19T07:49:42;25.20;52.50
13115;DHT22;6623;52.120;8.660;2023-09-19T07:52:09;25.20;52.50
13115;DHT22;6623;52.120;8.660;2023-09-19T07:54:35;25.20;52.50
13115;DHT22;6623;52.120;8.660;2023-09-19T07:57:01;25.20;52.50
13115;DHT22;6623;52.120;8.660;2023-09-19T07:59:27;25.20;52.40
13115;DHT22;6623;52.120;8.660;2023-09-19T08:01:53;25.20;52.40
13115;DHT22;6623;52.120;8.660;2023-09-19T08:04:19;25.20;52.40
13115;DHT22;6623;52.120;8.660;2023-09-19T08:06:45;25.20;52.40
13115;DHT22;6623;52.120;8.660;2023-09-19T08:09:10;25.20;52.30
13115;DHT22;6623;52.120;8.660;2023-09-19T08:11:37;25.20;52.20
13115;DHT22;6623;52.120;8.660;2023-09-19T08:14:04;25.20;52.30
13115;DHT22;6623;52.120;8.660;2023-09-19T08:16:31;25.20;52.20
13115;DHT22;6623;52.120;8.660;2023-09-19T08:18:56;25.20;52.20
13115;DHT22;6623;52.120;8.660;2023-09-19T08:21:22;25.20;52.20
13115;DHT22;6623;52.120;8.660;2023-09-19T08:23:49;25.10;52.10
13115;DHT22;6623;52.120;8.660;2023-09-19T08:26:15;25.10;52.10
13115;DHT22;6623;52.120;8.660;2023-09-19T08:28:40;25.20;52.20
13115;DHT22;6623;52.120;8.660;2023-09-19T08:31:07;25.10;52.10
13115;DHT22;6623;52.120;8.660;2023-09-19T08:33:37;25.10;52.00
13115;DHT22;6623;52.120;8.660;2023-09-19T08:36:03;25.10;52.00
13115;DHT22;6623;52.120;8.660;2023-09-19T08:38:31;25.10;52.00
13115;DHT22;6623;52.120;8.660;2023-09-19T08:40:59;25.10;52.00
13115;DHT22;6623;52.120;8.660;2023-09-19T08:43:25;25.10;52.00
13115;DHT22;6623;52.120;8.660;2023-09-19T08:48:29;25.10;52.00
13115;DHT22;6623;52.120;8.660;2023-09-19T08:51:10;25.10;52.00
13115;DHT22;6623;52.120;8.660;2023-09-19T08:53:52;25.10;52.00
13115;DHT22;6623;52.120;8.660;2023-09-19T08:56:20;25.10;51.90
13115;DHT22;6623;52.120;8.660;2023-09-19T08:58:59;25.10;51.90
13115;DHT22;6623;52.120;8.660;2023-09-19T09:01:28;25.10;51.90
13115;DHT22;6623;52.120;8.660;2023-09-19T09:03:54;25.10;51.80
13115;DHT22;6623;52.120;8.660;2023-09-19T09:06:20;25.10;51.80
13115;DHT22;6623;52.120;8.660;2023-09-19T09:08:46;25.10;51.80
13115;DHT22;6623;52.120;8.660;2023-09-19T09:11:15;25.10;51.80
13115;DHT22;6623;52.120;8.660;2023-09-19T09:13:42;25.10;51.70
13115;DHT22;6623;52.120;8.660;2023-09-19T09:16:08;25.10;51.70
13115;DHT22;6623;52.120;8.660;2023-09-19T09:18:35;25.10;51.70
13115;DHT22;6623;52.120;8.660;2023-09-19T09:21:00;25.10;51.70
13115;DHT22;6623;52.120;8.660;2023-09-19T09:23:30;25.10;51.60
13115;DHT22;6623;52.120;8.660;2023-09-19T09:25:58;25.10;51.60
13115;DHT22;6623;52.120;8.660;2023-09-19T09:28:26;25.10;51.60
13115;DHT22;6623;52.120;8.660;2023-09-19T09:30:54;25.10;51.60
13115;DHT22;6623;52.120;8.660;2023-09-19T09:33:20;25.10;51.50
13115;DHT22;6623;52.120;8.660;2023-09-19T09:35:51;25.10;51.50
13115;DHT22;6623;52.120;8.660;2023-09-19T09:38:23;25.10;51.50
13115;DHT22;6623;52.120;8.660;2023-09-19T09:40:56;25.10;51.50
13115;DHT22;6623;52.120;8.660;2023-09-19T09:46:14;25.10;51.50
13115;DHT22;6623;52.120;8.660;2023-09-19T09:48:47;25.10;51.40
13115;DHT22;6623;52.120;8.660;2023-09-19T09:51:33;25.00;51.30
13115;DHT22;6623;52.120;8.660;2023-09-19T09:54:18;25.00;51.30
13115;DHT22;6623;52.120;8.660;2023-09-19T09:56:57;25.00;51.30
13115;DHT22;6623;52.120;8.660;2023-09-19T09:59:50;25.00;51.30
13115;DHT22;6623;52.120;8.660;2023-09-19T10:02:29;25.00;51.30
13115;DHT22;6623;52.120;8.660;2023-09-19T10:04:56;25.00;51.30
13115;DHT22;6623;52.120;8.660;2023-09-19T10:07:35;25.00;51.30
13115;DHT22;6623;52.120;8.660;2023-09-19T10:10:06;25.00;51.90
13115;DHT22;6623;52.120;8.660;2023-09-19T10:12:44;25.00;51.20
13115;DHT22;6623;52.120;8.660;2023-09-19T10:15:11;25.00;51.20
13115;DHT22;6623;52.120;8.660;2023-09-19T10:17:42;25.00;51.20
13115;DHT22;6623;52.120;8.660;2023-09-19T10:20:15;25.00;51.10
13115;DHT22;6623;52.120;8.660;2023-09-19T10:23:05;25.00;51.10
13115;DHT22;6623;52.120;8.660;2023-09-19T10:25:36;25.00;51.10
13115;DHT22;6623;52.120;8.660;2023-09-19T10:28:02;25.00;51.10
13115;DHT22;6623;52.120;8.660;2023-09-19T10:30:32;25.00;51.00
13115;DHT22;6623;52.120;8.660;2023-09-19T10:33:03;25.00;51.00
13115;DHT22;6623;52.120;8.660;2023-09-19T10:35:32;25.00;51.00
13115;DHT22;6623;52.120;8.660;2023-09-19T10:38:00;25.00;51.00
13115;DHT22;6623;52.120;8.660;2023-09-19T10:40:29;25.00;51.00
13115;DHT22;6623;52.120;8.660;2023-09-19T10:43:06;25.00;50.90
13115;DHT22;6623;52.120;8.660;2023-09-19T10:45:34;25.00;50.90
13115;DHT22;6623;52.120;8.660;2023-09-19T10:48:01;25.00;50.90
13115;DHT22;6623;52.120;8.660;2023-09-19T10:50:33;25.00;50.80
13115;DHT22;6623;52.120;8.660;2023-09-19T10:53:04;25.00;50.80
13115;DHT22;6623;52.120;8.660;2023-09-19T10:55:31;25.00;50.80
13115;DHT22;6623;52.120;8.660;2023-09-19T10:57:59;24.90;50.70
13115;DHT22;6623;52.120;8.660;2023-09-19T11:00:25;24.90;50.70
13115;DHT22;6623;52.120;8.660;2023-09-19T11:05:39;24.90;50.60
13115;DHT22;6623;52.120;8.660;2023-09-19T11:08:07;24.90;50.60
13115;DHT22;6623;52.120;8.660;2023-09-19T11:10:49;24.90;50.60
13115;DHT22;6623;52.120;8.660;2023-09-19T11:13:31;24.90;50.60
13115;DHT22;6623;52.120;8.660;2023-09-19T11:26:41;24.90;50.50
13115;DHT22;6623;52.120;8.660;2023-09-19T11:29:31;24.90;50.50
13115;DHT22;6623;52.120;8.660;2023-09-19T11:31:57;24.90;50.50
13115;DHT22;6623;52.120;8.660;2023-09-19T11:34:44;24.90;50.60
13115;DHT22;6623;52.120;8.660;2023-09-19T11:39:40;24.90;50.60
13115;DHT22;6623;52.120;8.660;2023-09-19T11:42:41;24.90;50.60
13115;DHT22;6623;52.120;8.660;2023-09-19T11:45:06;24.90;50.60
13115;DHT22;6623;52.120;8.660;2023-09-19T11:47:32;24.90;50.60
13115;DHT22;6623;52.120;8.660;2023-09-19T11:50:01;24.90;50.60
13115;DHT22;6623;52.120;8.660;2023-09-19T11:52:28;24.90;51.20
13115;DHT22;6623;52.120;8.660;2023-09-19T11:55:01;24.90;50.50
13115;DHT22;6623;52.120;8.660;2023-09-19T11:57:28;24.90;50.50
13115;DHT22;6623;52.120;8.660;2023-09-19T11:59:55;24.90;50.50
13115;DHT22;6623;52.120;8.660;2023-09-19T12:02:39;24.90;50.60
13115;DHT22;6623;52.120;8.660;2023-09-19T12:05:08;24.90;50.50
13115;DHT22;6623;52.120;8.660;2023-09-19T12:07:42;24.90;50.50
13115;DHT22;6623;52.120;8.660;2023-09-19T12:10:11;24.90;50.50
13115;DHT22;6623;52.120;8.660;2023-09-19T12:12:39;24.90;50.50
13115;DHT22;6623;52.120;8.660;2023-09-19T12:15:08;24.90;50.50
13115;DHT22;6623;52.120;8.660;2023-09-19T12:17:36;24.90;51.20
13115;DHT22;6623;52.120;8.660;2023-09-19T12:20:02;24.90;50.50
13115;DHT22;6623;52.120;8.660;2023-09-19T12:22:47;24.90;50.60
13115;DHT22;6623;52.120;8.660;2023-09-19T12:25:15;24.90;50.50
13115;DHT22;6623;52.120;8.660;2023-09-19T12:27:47;24.90;50.70
13115;DHT22;6623;52.120;8.660;2023-09-19T12:30:13;24.90;50.50
13115;DHT22;6623;52.120;8.660;2023-09-19T12:32:40;24.90;50.50
13115;DHT22;6623;52.120;8.660;2023-09-19T12:35:08;24.90;50.50
13115;DHT22;6623;52.120;8.660;2023-09-19T12:37:37;24.90;50.50
13115;DHT22;6623;52.120;8.660;2023-09-19T12:40:07;24.90;50.40
13115;DHT22;6623;52.120;8.660;2023-09-19T12:42:48;24.90;50.50
13115;DHT22;6623;52.120;8.660;2023-09-19T12:45:14;24.90;50.50
13115;DHT22;6623;52.120;8.660;2023-09-19T12:51:11;24.90;50.50
13115;DHT22;6623;52.120;8.660;2023-09-19T12:53:42;24.90;50.50
13115;DHT22;6623;52.120;8.660;2023-09-19T12:56:13;24.90;50.50
13115;DHT22;6623;52.120;8.660;2023-09-19T12:58:56;24.90;50.50
13115;DHT22;6623;52.120;8.660;2023-09-19T13:01:24;24.90;50.50
13115;DHT22;6623;52.120;8.660;2023-09-19T13:06:37;24.90;50.50
13115;DHT22;6623;52.120;8.660;2023-09-19T13:09:11;24.90;50.40
13115;DHT22;6623;52.120;8.660;2023-09-19T13:11:38;24.90;50.50
13115;DHT22;6623;52.120;8.660;2023-09-19T13:17:03;24.90;50.40
13115;DHT22;6623;52.120;8.660;2023-09-19T13:19:36;24.90;50.40
13115;DHT22;6623;52.120;8.660;2023-09-19T13:22:02;24.90;50.40
13115;DHT22;6623;52.120;8.660;2023-09-19T13:24:28;24.90;50.40
13115;DHT22;6623;52.120;8.660;2023-09-19T13:26:56;24.90;50.30
13115;DHT22;6623;52.120;8.660;2023-09-19T13:29:22;24.90;50.30
13115;DHT22;6623;52.120;8.660;2023-09-19T13:31:51;24.90;50.30
13115;DHT22;6623;52.120;8.660;2023-09-19T13:34:19;24.90;50.20
13115;DHT22;6623;52.120;8.660;2023-09-19T13:36:45;24.90;50.30
13115;DHT22;6623;52.120;8.660;2023-09-19T13:39:16;24.90;50.20
13115;DHT22;6623;52.120;8.660;2023-09-19T13:41:44;24.90;50.20
13115;DHT22;6623;52.120;8.660;2023-09-19T13:44:11;24.90;50.20
13115;DHT22;6623;52.120;8.660;2023-09-19T13:46:37;24.90;50.20
13115;DHT22;6623;52.120;8.660;2023-09-19T13:49:03;24.90;50.20
13115;DHT22;6623;52.120;8.660;2023-09-19T13:51:32;24.90;50.20
13115;DHT22;6623;52.120;8.660;2023-09-19T13:53:58;24.90;50.20
13115;DHT22;6623;52.120;8.660;2023-09-19T13:56:25;24.90;50.20
13115;DHT22;6623;52.120;8.660;2023-09-19T13:58:53;24.90;50.20
13115;DHT22;6623;52.120;8.660;2023-09-19T14:01:19;24.90;50.20
13115;DHT22;6623;52.120;8.660;2023-09-19T14:03:44;24.90;50.20
13115;DHT22;6623;52.120;8.660;2023-09-19T14:06:17;24.90;50.20
13115;DHT22;6623;52.120;8.660;2023-09-19T14:08:43;24.90;50.10
13115;DHT22;6623;52.120;8.660;2023-09-19T14:11:09;24.90;50.00
13115;DHT22;6623;52.120;8.660;2023-09-19T14:13:35;24.90;50.00
13115;DHT22;6623;52.120;8.660;2023-09-19T14:16:05;24.90;50.00
13115;DHT22;6623;52.120;8.660;2023-09-19T14:18:31;24.90;50.00
13115;DHT22;6623;52.120;8.660;2023-09-19T14:20:57;24.90;50.00
13115;DHT22;6623;52.120;8.660;2023-09-19T14:23:22;24.90;50.00
13115;DHT22;6623;52.120;8.660;2023-09-19T14:25:50;24.90;50.00
13115;DHT22;6623;52.120;8.660;2023-09-19T14:28:15;24.90;50.00
13115;DHT22;6623;52.120;8.660;2023-09-19T14:30:41;24.90;50.00
13115;DHT22;6623;52.120;8.660;2023-09-19T14:33:06;24.90;50.00
13115;DHT22;6623;52.120;8.660;2023-09-19T14:35:32;24.90;50.00
13115;DHT22;6623;52.120;8.660;2023-09-19T14:37:58;24.90;50.00
13115;DHT22;6623;52.120;8.660;2023-09-19T14:40:24;24.90;50.00
13115;DHT22;6623;52.120;8.660;2023-09-19T14:42:50;24.90;50.00
13115;DHT22;6623;52.120;8.660;2023-09-19T14:45:16;24.90;49.90
13115;DHT22;6623;52.120;8.660;2023-09-19T14:47:45;24.90;49.90
13115;DHT22;6623;52.120;8.660;2023-09-19T14:50:11;24.90;49.90
13115;DHT22;6623;52.120;8.660;2023-09-19T14:52:38;24.90;49.90
13115;DHT22;6623;52.120;8.660;2023-09-19T14:55:05;24.90;49.90
13115;DHT22;6623;52.120;8.660;2023-09-19T14:57:31;24.90;49.90
13115;DHT22;6623;52.120;8.660;2023-09-19T14:59:57;24.90;49.90
13115;DHT22;6623;52.120;8.660;2023-09-19T15:02:23;24.80;49.80
13115;DHT22;6623;52.120;8.660;2023-09-19T15:04:48;24.90;49.90
13115;DHT22;6623;52.120;8.660;2023-09-19T15:07:16;24.90;49.90
13115;DHT22;6623;52.120;8.660;2023-09-19T15:09:42;24.80;49.90
13115;DHT22;6623;52.120;8.660;2023-09-19T15:12:08;24.90;49.90
13115;DHT22;6623;52.120;8.660;2023-09-19T15:14:34;24.90;49.90
13115;DHT22;6623;52.120;8.660;2023-09-19T15:17:00;24.90;49.90
13115;DHT22;6623;52.120;8.660;2023-09-19T15:19:25;24.80;49.80
13115;DHT22;6623;52.120;8.660;2023-09-19T15:21:51;24.80;49.80
13115;DHT22;6623;52.120;8.660;2023-09-19T15:24:16;24.90;49.90
13115;DHT22;6623;52.120;8.660;2023-09-19T15:26:42;24.80;49.80
13115;DHT22;6623;52.120;8.660;2023-09-19T15:29:09;24.80;49.80
13115;DHT22;6623;52.120;8.660;2023-09-19T15:31:35;24.80;49.80
13115;DHT22;6623;52.120;8.660;2023-09-19T15:34:05;24.90;49.80
13115;DHT22;6623;52.120;8.660;2023-09-19T15:36:32;24.80;49.80
13115;DHT22;6623;52.120;8.660;2023-09-19T15:39:06;24.80;49.80
13115;DHT22;6623;52.120;8.660;2023-09-19T15:41:34;24.80;49.80
13115;DHT22;6623;52.120;8.660;2023-09-19T15:44:01;24.80;49.80
13115;DHT22;6623;52.120;8.660;2023-09-19T15:46:31;24.90;49.80
13115;DHT22;6623;52.120;8.660;2023-09-19T15:49:00;24.80;49.80
13115;DHT22;6623;52.120;8.660;2023-09-19T15:51:26;24.80;49.80
13115;DHT22;6623;52.120;8.660;2023-09-19T15:53:53;24.80;49.80
13115;DHT22;6623;52.120;8.660;2023-09-19T15:56:22;24.90;49.80
13115;DHT22;6623;52.120;8.660;2023-09-19T15:58:52;24.80;49.70
13115;DHT22;6623;52.120;8.660;2023-09-19T16:01:19;24.90;49.80
13115;DHT22;6623;52.120;8.660;2023-09-19T16:03:50;24.90;49.80
13115;DHT22;6623;52.120;8.660;2023-09-19T16:06:19;24.80;49.70
13115;DHT22;6623;52.120;8.660;2023-09-19T16:08:46;24.80;50.30
13115;DHT22;6623;52.120;8.660;2023-09-19T16:11:13;24.80;49.60
13115;DHT22;6623;52.120;8.660;2023-09-19T16:13:39;24.80;49.60
13115;DHT22;6623;52.120;8.660;2023-09-19T16:16:07;24.80;49.60
13115;DHT22;6623;52.120;8.660;2023-09-19T16:18:47;24.80;49.60
13115;DHT22;6623;52.120;8.660;2023-09-19T16:21:16;24.80;49.60
13115;DHT22;6623;52.120;8.660;2023-09-19T16:23:49;24.80;49.60
13115;DHT22;6623;52.120;8.660;2023-09-19T16:26:16;24.80;49.60
13115;DHT22;6623;52.120;8.660;2023-09-19T16:28:44;24.80;49.50
13115;DHT22;6623;52.120;8.660;2023-09-19T16:31:10;24.80;49.50
13115;DHT22;6623;52.120;8.660;2023-09-19T16:33:37;24.80;49.50
13115;DHT22;6623;52.120;8.660;2023-09-19T16:36:11;24.80;49.50
13115;DHT22;6623;52.120;8.660;2023-09-19T16:38:38;24.80;49.50
13115;DHT22;6623;52.120;8.660;2023-09-19T16:41:04;24.80;49.50